QTR22P OBBI-OKKK
Flight info
| Callsign | QTR22P |
|---|---|
| Flight time | 0h 44m |
| Altitude | 26000 |
| Route | BHR A453 KUMBO/N0388F240 A453 DEBTI |
| Aircraft | A320/M-SDE3FGHIRWY/LB1 |
Departure
| Time | 2026-04-28 14:36 |
|---|---|
| Airport | Bahrain International Airport (OBBI) |
Arrival
| Time | 2026-04-28 15:20 |
|---|---|
| Airport | Kuwait International Airport (OKKK) |
| Time | Latitude | Longitude | Altitude | Speed | Heading |
|---|---|---|---|---|---|
| 2026-04-28 14:09 | 26.26847 | 50.63010 | 14 ft | 0 kts | 214° |
| 2026-04-28 14:26 | 26.26853 | 50.63014 | 14 ft | 4 kts | 214° |
| 2026-04-28 14:26 | 26.26876 | 50.63030 | 15 ft | 4 kts | 211° |
| 2026-04-28 14:26 | 26.26899 | 50.63045 | 17 ft | 4 kts | 213° |
| 2026-04-28 14:27 | 26.26917 | 50.63060 | 15 ft | 4 kts | 238° |
| 2026-04-28 14:27 | 26.26920 | 50.63084 | 17 ft | 4 kts | 295° |
| 2026-04-28 14:27 | 26.26907 | 50.63109 | 15 ft | 2 kts | 304° |
| 2026-04-28 14:27 | 26.26906 | 50.63110 | 15 ft | 0 kts | 304° |
| 2026-04-28 14:30 | 26.26909 | 50.63105 | 16 ft | 2 kts | 304° |
| 2026-04-28 14:30 | 26.26921 | 50.63086 | 17 ft | 4 kts | 304° |
| 2026-04-28 14:30 | 26.26944 | 50.63046 | 14 ft | 8 kts | 302° |
| 2026-04-28 14:30 | 26.26982 | 50.62981 | 15 ft | 12 kts | 302° |
| 2026-04-28 14:31 | 26.27033 | 50.62897 | 15 ft | 14 kts | 316° |
| 2026-04-28 14:31 | 26.27119 | 50.62913 | 15 ft | 10 kts | 17° |
| 2026-04-28 14:31 | 26.27179 | 50.62862 | 17 ft | 13 kts | 306° |
| 2026-04-28 14:31 | 26.27236 | 50.62767 | 15 ft | 16 kts | 303° |
| 2026-04-28 14:32 | 26.27300 | 50.62653 | 15 ft | 18 kts | 302° |
| 2026-04-28 14:32 | 26.27373 | 50.62524 | 15 ft | 21 kts | 302° |
| 2026-04-28 14:32 | 26.27457 | 50.62376 | 14 ft | 23 kts | 302° |
| 2026-04-28 14:32 | 26.27538 | 50.62236 | 14 ft | 16 kts | 303° |
| 2026-04-28 14:33 | 26.27603 | 50.62126 | 14 ft | 18 kts | 303° |
| 2026-04-28 14:33 | 26.27676 | 50.62004 | 14 ft | 20 kts | 303° |
| 2026-04-28 14:33 | 26.27753 | 50.61873 | 15 ft | 21 kts | 302° |
| 2026-04-28 14:33 | 26.27832 | 50.61734 | 15 ft | 20 kts | 302° |
| 2026-04-28 14:34 | 26.27951 | 50.61647 | 16 ft | 5 kts | 2° |
| 2026-04-28 14:34 | 26.27999 | 50.61676 | 16 ft | 9 kts | 30° |
| 2026-04-28 14:34 | 26.28022 | 50.61735 | 18 ft | 11 kts | 110° |
| 2026-04-28 14:35 | 26.27918 | 50.61918 | 16 ft | 58 kts | 122° |
| 2026-04-28 14:35 | 26.27584 | 50.62503 | 14 ft | 118 kts | 122° |
| 2026-04-28 14:35 | 26.27054 | 50.63422 | 17 ft | 162 kts | 122° |
| 2026-04-28 14:35 | 26.26409 | 50.64504 | 424 ft | 169 kts | 122° |
| 2026-04-28 14:36 | 26.25889 | 50.65667 | 932 ft | 168 kts | 95° |
| 2026-04-28 14:36 | 26.25956 | 50.66907 | 1429 ft | 167 kts | 70° |
| 2026-04-28 14:36 | 26.26619 | 50.67966 | 1871 ft | 175 kts | 35° |
| 2026-04-28 14:36 | 26.27831 | 50.68367 | 2023 ft | 197 kts | 355° |
| 2026-04-28 14:37 | 26.29146 | 50.67711 | 2154 ft | 223 kts | 324° |
| 2026-04-28 14:37 | 26.30447 | 50.66606 | 2354 ft | 248 kts | 323° |
| 2026-04-28 14:37 | 26.31867 | 50.65364 | 2725 ft | 268 kts | 322° |
| 2026-04-28 14:37 | 26.33354 | 50.64060 | 3358 ft | 276 kts | 319° |
| 2026-04-28 14:38 | 26.34985 | 50.62893 | 4099 ft | 284 kts | 335° |
| 2026-04-28 14:38 | 26.36849 | 50.62107 | 4873 ft | 288 kts | 337° |
| 2026-04-28 14:38 | 26.38747 | 50.61336 | 5659 ft | 291 kts | 336° |
| 2026-04-28 14:38 | 26.40661 | 50.60565 | 6454 ft | 293 kts | 336° |
| 2026-04-28 14:39 | 26.42589 | 50.59796 | 7216 ft | 295 kts | 336° |
| 2026-04-28 14:39 | 26.44529 | 50.59021 | 7975 ft | 297 kts | 335° |
| 2026-04-28 14:39 | 26.46478 | 50.58230 | 8740 ft | 299 kts | 334° |
| 2026-04-28 14:39 | 26.48436 | 50.57430 | 9513 ft | 301 kts | 334° |
| 2026-04-28 14:40 | 26.50409 | 50.56623 | 10238 ft | 302 kts | 334° |
| 2026-04-28 14:40 | 26.51077 | 50.56350 | 10481 ft | 303 kts | 334° |
| 2026-04-28 14:40 | 26.54375 | 50.55007 | 11706 ft | 304 kts | 334° |
| 2026-04-28 14:40 | 26.56356 | 50.54204 | 12529 ft | 302 kts | 334° |
| 2026-04-28 14:41 | 26.58330 | 50.53400 | 13271 ft | 303 kts | 333° |
| 2026-04-28 14:41 | 26.60319 | 50.52588 | 13929 ft | 305 kts | 333° |
| 2026-04-28 14:41 | 26.62320 | 50.51769 | 14530 ft | 308 kts | 333° |
| 2026-04-28 14:41 | 26.64342 | 50.50941 | 15119 ft | 311 kts | 333° |
| 2026-04-28 14:42 | 26.66381 | 50.50109 | 15717 ft | 314 kts | 333° |
| 2026-04-28 14:42 | 26.68422 | 50.49220 | 16312 ft | 314 kts | 328° |
| 2026-04-28 14:42 | 26.70334 | 50.48058 | 16894 ft | 312 kts | 320° |
| 2026-04-28 14:42 | 26.72072 | 50.46619 | 17482 ft | 310 kts | 313° |
| 2026-04-28 14:43 | 26.73657 | 50.44976 | 18072 ft | 311 kts | 310° |
| 2026-04-28 14:43 | 26.75232 | 50.43308 | 18625 ft | 313 kts | 310° |
| 2026-04-28 14:43 | 26.76804 | 50.41648 | 19128 ft | 316 kts | 310° |
| 2026-04-28 14:43 | 26.78414 | 50.39947 | 19590 ft | 321 kts | 310° |
| 2026-04-28 14:44 | 26.80046 | 50.38223 | 20074 ft | 324 kts | 310° |
| 2026-04-28 14:44 | 26.81690 | 50.36482 | 20564 ft | 328 kts | 309° |
| 2026-04-28 14:44 | 26.83355 | 50.34718 | 21045 ft | 331 kts | 309° |
| 2026-04-28 14:44 | 26.85033 | 50.32936 | 21481 ft | 336 kts | 309° |
| 2026-04-28 14:45 | 26.86761 | 50.31093 | 21593 ft | 350 kts | 309° |
| 2026-04-28 14:45 | 26.88560 | 50.29176 | 21738 ft | 363 kts | 309° |
| 2026-04-28 14:45 | 26.90425 | 50.27194 | 21869 ft | 377 kts | 310° |
| 2026-04-28 14:45 | 26.91700 | 50.25841 | 22026 ft | 383 kts | 310° |
| 2026-04-28 14:46 | 26.94316 | 50.23075 | 22616 ft | 389 kts | 310° |
| 2026-04-28 14:46 | 26.96293 | 50.20986 | 23087 ft | 393 kts | 310° |
| 2026-04-28 14:46 | 26.98290 | 50.18875 | 23504 ft | 396 kts | 310° |
| 2026-04-28 14:46 | 27.00306 | 50.16741 | 23871 ft | 400 kts | 309° |
| 2026-04-28 14:47 | 27.02331 | 50.14593 | 24262 ft | 402 kts | 309° |
| 2026-04-28 14:47 | 27.04357 | 50.12427 | 24657 ft | 402 kts | 308° |
| 2026-04-28 14:47 | 27.06207 | 50.10098 | 25058 ft | 400 kts | 303° |
| 2026-04-28 14:47 | 27.08015 | 50.07714 | 25464 ft | 401 kts | 303° |
| 2026-04-28 14:48 | 27.09824 | 50.05329 | 25717 ft | 402 kts | 303° |
| 2026-04-28 14:48 | 27.11623 | 50.02962 | 25774 ft | 393 kts | 303° |
| 2026-04-28 14:48 | 27.13390 | 50.00651 | 25780 ft | 388 kts | 303° |
| 2026-04-28 14:48 | 27.15144 | 49.98354 | 25780 ft | 386 kts | 302° |
| 2026-04-28 14:49 | 27.16882 | 49.96066 | 25774 ft | 385 kts | 302° |
| 2026-04-28 14:49 | 27.18619 | 49.93768 | 25780 ft | 386 kts | 302° |
| 2026-04-28 14:49 | 27.19769 | 49.92245 | 25780 ft | 386 kts | 302° |
| 2026-04-28 14:49 | 27.22073 | 49.89202 | 25780 ft | 386 kts | 302° |
| 2026-04-28 14:50 | 27.23248 | 49.87650 | 25778 ft | 386 kts | 302° |
| 2026-04-28 14:50 | 27.24987 | 49.85356 | 25777 ft | 386 kts | 302° |
| 2026-04-28 14:50 | 27.26727 | 49.83063 | 25778 ft | 386 kts | 302° |
| 2026-04-28 14:50 | 27.28469 | 49.80771 | 25779 ft | 386 kts | 302° |
| 2026-04-28 14:51 | 27.30215 | 49.78470 | 25774 ft | 386 kts | 302° |
| 2026-04-28 14:51 | 27.31952 | 49.76172 | 25775 ft | 386 kts | 302° |
| 2026-04-28 14:51 | 27.33689 | 49.73869 | 25784 ft | 386 kts | 302° |
| 2026-04-28 14:51 | 27.35426 | 49.71566 | 25783 ft | 386 kts | 302° |
| 2026-04-28 14:52 | 27.37162 | 49.69263 | 25785 ft | 386 kts | 302° |
| 2026-04-28 14:52 | 27.38898 | 49.66964 | 25784 ft | 386 kts | 302° |
| 2026-04-28 14:52 | 27.40635 | 49.64664 | 25793 ft | 386 kts | 302° |
| 2026-04-28 14:52 | 27.42373 | 49.62364 | 25791 ft | 386 kts | 302° |
| 2026-04-28 14:53 | 27.44112 | 49.60062 | 25787 ft | 386 kts | 302° |
| 2026-04-28 14:53 | 27.45844 | 49.57760 | 25786 ft | 385 kts | 302° |
| 2026-04-28 14:53 | 27.47583 | 49.55460 | 25785 ft | 387 kts | 304° |
| 2026-04-28 14:53 | 27.49578 | 49.53375 | 25785 ft | 396 kts | 313° |
| 2026-04-28 14:54 | 27.51737 | 49.51443 | 25788 ft | 396 kts | 313° |
| 2026-04-28 14:54 | 27.53900 | 49.49515 | 25786 ft | 396 kts | 313° |
| 2026-04-28 14:54 | 27.56061 | 49.47590 | 25783 ft | 396 kts | 313° |
| 2026-04-28 14:54 | 27.58190 | 49.45692 | 25671 ft | 392 kts | 313° |
| 2026-04-28 14:55 | 27.60337 | 49.43781 | 25428 ft | 384 kts | 313° |
| 2026-04-28 14:55 | 27.62388 | 49.41951 | 25195 ft | 378 kts | 313° |
| 2026-04-28 14:55 | 27.64440 | 49.40113 | 24984 ft | 375 kts | 313° |
| 2026-04-28 14:55 | 27.66478 | 49.38276 | 24833 ft | 374 kts | 313° |
| 2026-04-28 14:56 | 27.68514 | 49.36439 | 24698 ft | 374 kts | 313° |
| 2026-04-28 14:56 | 27.70544 | 49.34610 | 24579 ft | 373 kts | 313° |
| 2026-04-28 14:56 | 27.72573 | 49.32784 | 24466 ft | 373 kts | 313° |
| 2026-04-28 14:56 | 27.74601 | 49.30960 | 24362 ft | 373 kts | 313° |
| 2026-04-28 14:57 | 27.76624 | 49.29136 | 24255 ft | 371 kts | 313° |
| 2026-04-28 14:57 | 27.77960 | 49.27933 | 24180 ft | 371 kts | 313° |
| 2026-04-28 14:57 | 27.80655 | 49.25507 | 24030 ft | 370 kts | 313° |
| 2026-04-28 14:57 | 27.82662 | 49.23697 | 23918 ft | 369 kts | 313° |
| 2026-04-28 14:58 | 27.84666 | 49.21889 | 23809 ft | 368 kts | 313° |
| 2026-04-28 14:58 | 27.86666 | 49.20085 | 23698 ft | 368 kts | 314° |
| 2026-04-28 14:58 | 27.88815 | 49.18461 | 23586 ft | 375 kts | 321° |
| 2026-04-28 14:58 | 27.91077 | 49.16985 | 23485 ft | 375 kts | 322° |
| 2026-04-28 14:59 | 27.93332 | 49.15514 | 23375 ft | 373 kts | 322° |
| 2026-04-28 14:59 | 27.95572 | 49.14049 | 23253 ft | 372 kts | 322° |
| 2026-04-28 14:59 | 27.97806 | 49.12584 | 23120 ft | 371 kts | 322° |
| 2026-04-28 14:59 | 28.00036 | 49.11122 | 22987 ft | 370 kts | 322° |
| 2026-04-28 15:00 | 28.02256 | 49.09662 | 22852 ft | 369 kts | 322° |
| 2026-04-28 15:00 | 28.04474 | 49.08203 | 22723 ft | 368 kts | 322° |
| 2026-04-28 15:00 | 28.06686 | 49.06747 | 22592 ft | 367 kts | 322° |
| 2026-04-28 15:00 | 28.08894 | 49.05295 | 22461 ft | 366 kts | 322° |
| 2026-04-28 15:01 | 28.11095 | 49.03849 | 22336 ft | 366 kts | 322° |
| 2026-04-28 15:01 | 28.13267 | 49.02421 | 22213 ft | 365 kts | 322° |
| 2026-04-28 15:01 | 28.15462 | 49.00976 | 22080 ft | 365 kts | 322° |
| 2026-04-28 15:01 | 28.17683 | 48.99515 | 21950 ft | 364 kts | 322° |
| 2026-04-28 15:02 | 28.19841 | 48.98094 | 21793 ft | 363 kts | 322° |
| 2026-04-28 15:02 | 28.22022 | 48.96656 | 21730 ft | 362 kts | 322° |
| 2026-04-28 15:02 | 28.24196 | 48.95218 | 21742 ft | 362 kts | 322° |
| 2026-04-28 15:02 | 28.26373 | 48.93778 | 21624 ft | 364 kts | 322° |
| 2026-04-28 15:03 | 28.28553 | 48.92336 | 21274 ft | 360 kts | 322° |
| 2026-04-28 15:03 | 28.30718 | 48.90909 | 20925 ft | 358 kts | 322° |
| 2026-04-28 15:03 | 28.32869 | 48.89491 | 20580 ft | 356 kts | 322° |
| 2026-04-28 15:03 | 28.35003 | 48.88082 | 20240 ft | 354 kts | 322° |
| 2026-04-28 15:04 | 28.37128 | 48.86676 | 19902 ft | 352 kts | 323° |
| 2026-04-28 15:04 | 28.39242 | 48.85280 | 19607 ft | 350 kts | 323° |
| 2026-04-28 15:04 | 28.41350 | 48.83883 | 19288 ft | 349 kts | 323° |
| 2026-04-28 15:04 | 28.43442 | 48.82495 | 18903 ft | 347 kts | 323° |
| 2026-04-28 15:05 | 28.45522 | 48.81112 | 18512 ft | 345 kts | 322° |
| 2026-04-28 15:05 | 28.47592 | 48.79734 | 18115 ft | 344 kts | 323° |
| 2026-04-28 15:05 | 28.49649 | 48.78366 | 17687 ft | 342 kts | 323° |
| 2026-04-28 15:05 | 28.51700 | 48.77004 | 17294 ft | 339 kts | 323° |
| 2026-04-28 15:06 | 28.53729 | 48.75656 | 16908 ft | 337 kts | 323° |
| 2026-04-28 15:06 | 28.55748 | 48.74312 | 16525 ft | 334 kts | 322° |
| 2026-04-28 15:06 | 28.57577 | 48.72752 | 16152 ft | 324 kts | 310° |
| 2026-04-28 15:06 | 28.59025 | 48.70879 | 15794 ft | 316 kts | 301° |
| 2026-04-28 15:07 | 28.60338 | 48.68884 | 15438 ft | 314 kts | 301° |
| 2026-04-28 15:07 | 28.61665 | 48.66880 | 15156 ft | 312 kts | 301° |
| 2026-04-28 15:07 | 28.62957 | 48.64938 | 14952 ft | 313 kts | 302° |
| 2026-04-28 15:07 | 28.64277 | 48.62955 | 14638 ft | 315 kts | 302° |
| 2026-04-28 15:08 | 28.65597 | 48.60974 | 14286 ft | 314 kts | 302° |
| 2026-04-28 15:08 | 28.66912 | 48.58995 | 13924 ft | 313 kts | 302° |
| 2026-04-28 15:08 | 28.68222 | 48.57023 | 13577 ft | 312 kts | 302° |
| 2026-04-28 15:08 | 28.69524 | 48.55078 | 13389 ft | 304 kts | 302° |
| 2026-04-28 15:09 | 28.70790 | 48.53202 | 13250 ft | 294 kts | 302° |
| 2026-04-28 15:09 | 28.72005 | 48.51379 | 13121 ft | 284 kts | 302° |
| 2026-04-28 15:09 | 28.73169 | 48.49598 | 12954 ft | 277 kts | 301° |
| 2026-04-28 15:09 | 28.73931 | 48.48412 | 12826 ft | 273 kts | 300° |
| 2026-04-28 15:10 | 28.75400 | 48.46090 | 12363 ft | 273 kts | 300° |
| 2026-04-28 15:10 | 28.76508 | 48.44323 | 11992 ft | 274 kts | 300° |
| 2026-04-28 15:10 | 28.77621 | 48.42545 | 11620 ft | 276 kts | 300° |
| 2026-04-28 15:10 | 28.78737 | 48.40763 | 11311 ft | 275 kts | 300° |
| 2026-04-28 15:11 | 28.79850 | 48.38988 | 10963 ft | 275 kts | 301° |
| 2026-04-28 15:11 | 28.80954 | 48.37230 | 10756 ft | 270 kts | 300° |
| 2026-04-28 15:11 | 28.82031 | 48.35515 | 10641 ft | 261 kts | 300° |
| 2026-04-28 15:11 | 28.83074 | 48.33853 | 10457 ft | 255 kts | 300° |
| 2026-04-28 15:12 | 28.84102 | 48.32211 | 10190 ft | 254 kts | 300° |
| 2026-04-28 15:12 | 28.85127 | 48.30573 | 9900 ft | 253 kts | 300° |
| 2026-04-28 15:12 | 28.86149 | 48.28937 | 9604 ft | 252 kts | 300° |
| 2026-04-28 15:12 | 28.87183 | 48.27279 | 9004 ft | 262 kts | 300° |
| 2026-04-28 15:13 | 28.88239 | 48.25583 | 8534 ft | 260 kts | 301° |
| 2026-04-28 15:13 | 28.89283 | 48.23916 | 8028 ft | 258 kts | 301° |
| 2026-04-28 15:13 | 28.90323 | 48.22259 | 7539 ft | 256 kts | 301° |
| 2026-04-28 15:13 | 28.91356 | 48.20613 | 7052 ft | 254 kts | 301° |
| 2026-04-28 15:14 | 28.92378 | 48.18982 | 6579 ft | 251 kts | 301° |
| 2026-04-28 15:14 | 28.93377 | 48.17387 | 6097 ft | 249 kts | 301° |
| 2026-04-28 15:14 | 28.94377 | 48.15788 | 5614 ft | 246 kts | 301° |
| 2026-04-28 15:14 | 28.95364 | 48.14206 | 5125 ft | 243 kts | 301° |
| 2026-04-28 15:15 | 28.96339 | 48.12641 | 4651 ft | 240 kts | 301° |
| 2026-04-28 15:15 | 28.96989 | 48.11596 | 4350 ft | 238 kts | 301° |
| 2026-04-28 15:15 | 28.98250 | 48.09607 | 3836 ft | 230 kts | 305° |
| 2026-04-28 15:15 | 28.99570 | 48.08606 | 3446 ft | 235 kts | 342° |
| 2026-04-28 15:16 | 29.01170 | 48.08301 | 3087 ft | 228 kts | 339° |
| 2026-04-28 15:16 | 29.02578 | 48.07594 | 3004 ft | 219 kts | 328° |
| 2026-04-28 15:16 | 29.03948 | 48.06826 | 3006 ft | 219 kts | 329° |
| 2026-04-28 15:16 | 29.05328 | 48.06085 | 3031 ft | 219 kts | 329° |
| 2026-04-28 15:17 | 29.06703 | 48.05356 | 3026 ft | 218 kts | 329° |
| 2026-04-28 15:17 | 29.08068 | 48.04634 | 2865 ft | 214 kts | 329° |
| 2026-04-28 15:17 | 29.09413 | 48.03922 | 2629 ft | 212 kts | 329° |
| 2026-04-28 15:17 | 29.10739 | 48.03220 | 2395 ft | 207 kts | 329° |
| 2026-04-28 15:18 | 29.12032 | 48.02535 | 2115 ft | 202 kts | 329° |
| 2026-04-28 15:18 | 29.13269 | 48.01881 | 1849 ft | 189 kts | 329° |
| 2026-04-28 15:18 | 29.14427 | 48.01268 | 1622 ft | 176 kts | 329° |
| 2026-04-28 15:18 | 29.15484 | 48.00708 | 1409 ft | 160 kts | 327° |
| 2026-04-28 15:19 | 29.16457 | 48.00191 | 1230 ft | 151 kts | 327° |
| 2026-04-28 15:19 | 29.17395 | 47.99693 | 1057 ft | 147 kts | 324° |
| 2026-04-28 15:19 | 29.18311 | 47.99203 | 874 ft | 141 kts | 332° |
| 2026-04-28 15:19 | 29.19182 | 47.98758 | 686 ft | 138 kts | 332° |
| 2026-04-28 15:20 | 29.20043 | 47.98298 | 518 ft | 135 kts | 331° |
| 2026-04-28 15:20 | 29.20875 | 47.97850 | 333 ft | 129 kts | 330° |
| 2026-04-28 15:20 | 29.21672 | 47.97415 | 184 ft | 119 kts | 333° |
| 2026-04-28 15:20 | 29.22200 | 47.97132 | 189 ft | 41 kts | 335° |
| 2026-04-28 15:21 | 29.22396 | 47.97027 | 191 ft | 32 kts | 335° |
| 2026-04-28 15:21 | 29.22635 | 47.96896 | 191 ft | 45 kts | 335° |
| 2026-04-28 15:21 | 29.22951 | 47.96735 | 195 ft | 52 kts | 336° |
| 2026-04-28 15:21 | 29.23285 | 47.96578 | 201 ft | 49 kts | 351° |
| 2026-04-28 15:22 | 29.23516 | 47.96647 | 190 ft | 17 kts | 30° |
| 2026-04-28 15:22 | 29.23601 | 47.96634 | 189 ft | 13 kts | 335° |
| 2026-04-28 15:22 | 29.23681 | 47.96593 | 184 ft | 10 kts | 335° |
| 2026-04-28 15:22 | 29.23755 | 47.96555 | 182 ft | 14 kts | 336° |
| 2026-04-28 15:23 | 29.23854 | 47.96504 | 180 ft | 17 kts | 336° |
| 2026-04-28 15:23 | 29.23965 | 47.96447 | 181 ft | 18 kts | 336° |
| 2026-04-28 15:23 | 29.24090 | 47.96380 | 179 ft | 21 kts | 334° |
| 2026-04-28 15:23 | 29.24226 | 47.96305 | 180 ft | 22 kts | 334° |
| 2026-04-28 15:24 | 29.24376 | 47.96234 | 175 ft | 25 kts | 337° |
| 2026-04-28 15:24 | 29.24537 | 47.96154 | 168 ft | 19 kts | 7° |
| 2026-04-28 15:24 | 29.24598 | 47.96227 | 164 ft | 9 kts | 64° |
| 2026-04-28 15:24 | 29.24606 | 47.96246 | 164 ft | 3 kts | 64° |
| 2026-04-28 15:25 | 29.24617 | 47.96263 | 162 ft | 3 kts | 52° |